sensor_id;sensor_type;location;lat;lon;timestamp;P1;durP1;ratioP1;P2;durP2;ratioP2
75156;SDS011;63736;50.076;8.198;2023-09-30T00:01:49;1216.97;;;310.77;;
75156;SDS011;63736;50.076;8.198;2023-09-30T00:04:17;1217.80;;;310.75;;
75156;SDS011;63736;50.076;8.198;2023-09-30T00:06:42;1211.83;;;309.03;;
75156;SDS011;63736;50.076;8.198;2023-09-30T00:09:07;1208.53;;;307.90;;
75156;SDS011;63736;50.076;8.198;2023-09-30T00:11:32;1203.67;;;309.13;;
75156;SDS011;63736;50.076;8.198;2023-09-30T00:13:58;1210.80;;;309.83;;
75156;SDS011;63736;50.076;8.198;2023-09-30T00:16:23;1206.53;;;305.23;;
75156;SDS011;63736;50.076;8.198;2023-09-30T00:18:48;1205.32;;;305.65;;
75156;SDS011;63736;50.076;8.198;2023-09-30T00:21:14;1207.13;;;307.97;;
75156;SDS011;63736;50.076;8.198;2023-09-30T00:23:40;1202.87;;;305.43;;
75156;SDS011;63736;50.076;8.198;2023-09-30T00:26:05;1203.17;;;306.50;;
75156;SDS011;63736;50.076;8.198;2023-09-30T00:28:30;1205.63;;;308.37;;
75156;SDS011;63736;50.076;8.198;2023-09-30T00:30:56;1202.23;;;306.70;;
75156;SDS011;63736;50.076;8.198;2023-09-30T00:33:21;1201.57;;;304.83;;
75156;SDS011;63736;50.076;8.198;2023-09-30T00:35:47;1203.90;;;306.42;;
75156;SDS011;63736;50.076;8.198;2023-09-30T00:38:12;1201.80;;;306.73;;
75156;SDS011;63736;50.076;8.198;2023-09-30T00:40:37;1201.87;;;307.50;;
75156;SDS011;63736;50.076;8.198;2023-09-30T00:43:02;1196.60;;;304.63;;
75156;SDS011;63736;50.076;8.198;2023-09-30T00:45:28;1203.87;;;308.10;;
75156;SDS011;63736;50.076;8.198;2023-09-30T00:47:55;1202.70;;;307.60;;
75156;SDS011;63736;50.076;8.198;2023-09-30T00:50:20;1206.85;;;308.80;;
75156;SDS011;63736;50.076;8.198;2023-09-30T00:52:46;1204.03;;;306.83;;
75156;SDS011;63736;50.076;8.198;2023-09-30T00:55:13;1205.53;;;308.90;;
75156;SDS011;63736;50.076;8.198;2023-09-30T00:57:40;1206.32;;;308.52;;
75156;SDS011;63736;50.076;8.198;2023-09-30T01:00:06;1201.60;;;307.07;;
75156;SDS011;63736;50.076;8.198;2023-09-30T01:02:32;1211.95;;;312.90;;
75156;SDS011;63736;50.076;8.198;2023-09-30T01:04:59;1212.38;;;311.40;;
75156;SDS011;63736;50.076;8.198;2023-09-30T01:07:26;1218.38;;;313.25;;
75156;SDS011;63736;50.076;8.198;2023-09-30T01:09:51;1229.40;;;316.80;;
75156;SDS011;63736;50.076;8.198;2023-09-30T01:12:16;1245.27;;;321.70;;
75156;SDS011;63736;50.076;8.198;2023-09-30T01:14:42;1252.47;;;325.33;;
75156;SDS011;63736;50.076;8.198;2023-09-30T01:17:07;1225.03;;;314.93;;
75156;SDS011;63736;50.076;8.198;2023-09-30T01:19:39;1220.65;;;312.42;;
75156;SDS011;63736;50.076;8.198;2023-09-30T01:22:04;1218.28;;;311.50;;
75156;SDS011;63736;50.076;8.198;2023-09-30T01:24:30;1220.23;;;311.90;;
75156;SDS011;63736;50.076;8.198;2023-09-30T01:26:55;1223.37;;;311.47;;
75156;SDS011;63736;50.076;8.198;2023-09-30T01:29:21;1237.97;;;317.95;;
75156;SDS011;63736;50.076;8.198;2023-09-30T01:31:47;1253.70;;;319.48;;
75156;SDS011;63736;50.076;8.198;2023-09-30T01:34:13;1273.10;;;325.80;;
75156;SDS011;63736;50.076;8.198;2023-09-30T01:36:40;1251.95;;;325.35;;
75156;SDS011;63736;50.076;8.198;2023-09-30T01:39:06;1232.18;;;317.58;;
75156;SDS011;63736;50.076;8.198;2023-09-30T01:41:32;1223.33;;;315.07;;
75156;SDS011;63736;50.076;8.198;2023-09-30T01:43:58;1224.65;;;318.63;;
75156;SDS011;63736;50.076;8.198;2023-09-30T01:46:23;1207.67;;;312.77;;
75156;SDS011;63736;50.076;8.198;2023-09-30T01:48:48;1189.00;;;306.00;;
75156;SDS011;63736;50.076;8.198;2023-09-30T01:51:13;1187.00;;;307.13;;
75156;SDS011;63736;50.076;8.198;2023-09-30T01:53:39;1161.33;;;300.30;;
75156;SDS011;63736;50.076;8.198;2023-09-30T01:56:04;1097.10;;;280.97;;
75156;SDS011;63736;50.076;8.198;2023-09-30T01:58:30;1086.33;;;279.97;;
75156;SDS011;63736;50.076;8.198;2023-09-30T02:01:01;1028.10;;;261.03;;
75156;SDS011;63736;50.076;8.198;2023-09-30T02:03:27;1028.05;;;263.75;;
75156;SDS011;63736;50.076;8.198;2023-09-30T02:05:54;1008.40;;;255.67;;
75156;SDS011;63736;50.076;8.198;2023-09-30T02:08:19;1017.67;;;258.67;;
75156;SDS011;63736;50.076;8.198;2023-09-30T02:10:44;1011.73;;;257.27;;
75156;SDS011;63736;50.076;8.198;2023-09-30T02:13:10;991.57;;;251.47;;
75156;SDS011;63736;50.076;8.198;2023-09-30T02:15:35;980.43;;;247.33;;
75156;SDS011;63736;50.076;8.198;2023-09-30T02:18:04;977.30;;;248.77;;
75156;SDS011;63736;50.076;8.198;2023-09-30T02:20:29;978.67;;;248.57;;
75156;SDS011;63736;50.076;8.198;2023-09-30T02:22:55;974.67;;;247.65;;
75156;SDS011;63736;50.076;8.198;2023-09-30T02:25:22;970.77;;;245.53;;
75156;SDS011;63736;50.076;8.198;2023-09-30T02:27:49;967.58;;;243.65;;
75156;SDS011;63736;50.076;8.198;2023-09-30T02:30:15;965.50;;;244.95;;
75156;SDS011;63736;50.076;8.198;2023-09-30T02:32:41;961.20;;;242.93;;
75156;SDS011;63736;50.076;8.198;2023-09-30T02:35:08;959.58;;;242.93;;
75156;SDS011;63736;50.076;8.198;2023-09-30T02:37:37;954.28;;;240.73;;
75156;SDS011;63736;50.076;8.198;2023-09-30T02:40:03;953.63;;;241.23;;
75156;SDS011;63736;50.076;8.198;2023-09-30T02:42:36;947.57;;;238.00;;
75156;SDS011;63736;50.076;8.198;2023-09-30T02:45:05;947.67;;;238.52;;
75156;SDS011;63736;50.076;8.198;2023-09-30T02:47:33;946.95;;;239.95;;
75156;SDS011;63736;50.076;8.198;2023-09-30T02:49:59;947.20;;;239.77;;
75156;SDS011;63736;50.076;8.198;2023-09-30T02:52:25;942.30;;;237.23;;
75156;SDS011;63736;50.076;8.198;2023-09-30T02:54:50;948.53;;;240.60;;
75156;SDS011;63736;50.076;8.198;2023-09-30T02:57:16;942.17;;;237.23;;
75156;SDS011;63736;50.076;8.198;2023-09-30T02:59:42;937.13;;;236.90;;
75156;SDS011;63736;50.076;8.198;2023-09-30T03:02:09;933.10;;;233.70;;
75156;SDS011;63736;50.076;8.198;2023-09-30T03:04:34;934.60;;;234.47;;
75156;SDS011;63736;50.076;8.198;2023-09-30T03:06:59;936.50;;;236.37;;
75156;SDS011;63736;50.076;8.198;2023-09-30T03:09:25;935.80;;;235.00;;
75156;SDS011;63736;50.076;8.198;2023-09-30T03:11:51;941.47;;;237.85;;
75156;SDS011;63736;50.076;8.198;2023-09-30T03:14:16;937.93;;;235.17;;
75156;SDS011;63736;50.076;8.198;2023-09-30T03:16:41;947.63;;;238.40;;
75156;SDS011;63736;50.076;8.198;2023-09-30T03:19:08;953.00;;;242.18;;
75156;SDS011;63736;50.076;8.198;2023-09-30T03:21:35;953.00;;;241.47;;
75156;SDS011;63736;50.076;8.198;2023-09-30T03:24:02;958.53;;;242.98;;
75156;SDS011;63736;50.076;8.198;2023-09-30T03:26:29;953.20;;;242.38;;
75156;SDS011;63736;50.076;8.198;2023-09-30T03:28:54;940.47;;;237.93;;
75156;SDS011;63736;50.076;8.198;2023-09-30T03:31:20;913.00;;;230.17;;
75156;SDS011;63736;50.076;8.198;2023-09-30T03:33:45;909.90;;;228.35;;
75156;SDS011;63736;50.076;8.198;2023-09-30T03:36:12;898.17;;;224.88;;
75156;SDS011;63736;50.076;8.198;2023-09-30T03:38:38;893.20;;;223.13;;
75156;SDS011;63736;50.076;8.198;2023-09-30T03:41:04;890.17;;;224.05;;
75156;SDS011;63736;50.076;8.198;2023-09-30T03:43:33;878.37;;;219.27;;
75156;SDS011;63736;50.076;8.198;2023-09-30T03:45:59;865.10;;;216.00;;
75156;SDS011;63736;50.076;8.198;2023-09-30T03:48:25;864.38;;;215.70;;
75156;SDS011;63736;50.076;8.198;2023-09-30T03:50:51;868.00;;;217.13;;
75156;SDS011;63736;50.076;8.198;2023-09-30T03:53:17;879.80;;;220.30;;
75156;SDS011;63736;50.076;8.198;2023-09-30T03:55:42;881.67;;;221.07;;
75156;SDS011;63736;50.076;8.198;2023-09-30T03:58:08;897.23;;;225.33;;
75156;SDS011;63736;50.076;8.198;2023-09-30T04:00:33;878.97;;;220.43;;
75156;SDS011;63736;50.076;8.198;2023-09-30T04:02:58;873.93;;;219.10;;
75156;SDS011;63736;50.076;8.198;2023-09-30T04:05:24;875.07;;;220.47;;
75156;SDS011;63736;50.076;8.198;2023-09-30T04:07:57;857.50;;;214.13;;
75156;SDS011;63736;50.076;8.198;2023-09-30T04:10:23;857.55;;;214.80;;
75156;SDS011;63736;50.076;8.198;2023-09-30T04:12:48;859.13;;;214.90;;
75156;SDS011;63736;50.076;8.198;2023-09-30T04:15:14;869.05;;;219.70;;
75156;SDS011;63736;50.076;8.198;2023-09-30T04:17:40;866.97;;;218.53;;
75156;SDS011;63736;50.076;8.198;2023-09-30T04:20:06;863.67;;;218.03;;
75156;SDS011;63736;50.076;8.198;2023-09-30T04:22:35;860.95;;;217.13;;
75156;SDS011;63736;50.076;8.198;2023-09-30T04:25:00;859.65;;;215.23;;
75156;SDS011;63736;50.076;8.198;2023-09-30T04:27:26;857.57;;;216.70;;
75156;SDS011;63736;50.076;8.198;2023-09-30T04:29:52;858.03;;;216.63;;
75156;SDS011;63736;50.076;8.198;2023-09-30T04:32:18;860.27;;;217.20;;
75156;SDS011;63736;50.076;8.198;2023-09-30T04:34:44;858.35;;;216.95;;
75156;SDS011;63736;50.076;8.198;2023-09-30T04:37:12;854.05;;;214.48;;
75156;SDS011;63736;50.076;8.198;2023-09-30T04:39:38;849.90;;;213.77;;
75156;SDS011;63736;50.076;8.198;2023-09-30T04:42:04;855.77;;;216.50;;
75156;SDS011;63736;50.076;8.198;2023-09-30T04:44:29;854.38;;;215.77;;
75156;SDS011;63736;50.076;8.198;2023-09-30T04:46:55;853.70;;;214.90;;
75156;SDS011;63736;50.076;8.198;2023-09-30T04:49:21;857.05;;;216.00;;
75156;SDS011;63736;50.076;8.198;2023-09-30T04:51:46;850.93;;;214.17;;
75156;SDS011;63736;50.076;8.198;2023-09-30T04:54:14;854.65;;;215.13;;
75156;SDS011;63736;50.076;8.198;2023-09-30T04:56:39;852.97;;;213.60;;
75156;SDS011;63736;50.076;8.198;2023-09-30T04:59:04;855.33;;;215.10;;
75156;SDS011;63736;50.076;8.198;2023-09-30T05:01:30;857.77;;;216.10;;
75156;SDS011;63736;50.076;8.198;2023-09-30T05:03:55;866.87;;;219.00;;
75156;SDS011;63736;50.076;8.198;2023-09-30T05:06:20;888.33;;;225.83;;
75156;SDS011;63736;50.076;8.198;2023-09-30T05:08:46;885.08;;;223.32;;
75156;SDS011;63736;50.076;8.198;2023-09-30T05:11:12;896.17;;;226.50;;
75156;SDS011;63736;50.076;8.198;2023-09-30T05:13:37;890.57;;;224.93;;
75156;SDS011;63736;50.076;8.198;2023-09-30T05:16:03;886.50;;;224.20;;
75156;SDS011;63736;50.076;8.198;2023-09-30T05:18:28;881.77;;;222.97;;
75156;SDS011;63736;50.076;8.198;2023-09-30T05:20:54;882.97;;;222.90;;
75156;SDS011;63736;50.076;8.198;2023-09-30T05:23:20;871.47;;;220.93;;
75156;SDS011;63736;50.076;8.198;2023-09-30T05:25:45;873.30;;;221.80;;
75156;SDS011;63736;50.076;8.198;2023-09-30T05:28:10;863.83;;;218.18;;
75156;SDS011;63736;50.076;8.198;2023-09-30T05:30:36;849.57;;;214.57;;
75156;SDS011;63736;50.076;8.198;2023-09-30T05:33:02;844.40;;;213.48;;
75156;SDS011;63736;50.076;8.198;2023-09-30T05:35:28;836.10;;;209.77;;
75156;SDS011;63736;50.076;8.198;2023-09-30T05:37:53;834.50;;;210.33;;
75156;SDS011;63736;50.076;8.198;2023-09-30T05:40:19;831.47;;;210.13;;
75156;SDS011;63736;50.076;8.198;2023-09-30T05:42:51;825.15;;;208.32;;
75156;SDS011;63736;50.076;8.198;2023-09-30T05:45:22;823.15;;;206.57;;
75156;SDS011;63736;50.076;8.198;2023-09-30T05:47:48;820.30;;;205.07;;
75156;SDS011;63736;50.076;8.198;2023-09-30T05:50:14;819.72;;;205.98;;
75156;SDS011;63736;50.076;8.198;2023-09-30T05:52:42;817.47;;;205.23;;
75156;SDS011;63736;50.076;8.198;2023-09-30T05:55:10;817.73;;;205.07;;
75156;SDS011;63736;50.076;8.198;2023-09-30T05:57:36;818.87;;;204.90;;
75156;SDS011;63736;50.076;8.198;2023-09-30T06:00:02;818.37;;;204.93;;
75156;SDS011;63736;50.076;8.198;2023-09-30T06:02:45;818.50;;;204.05;;
75156;SDS011;63736;50.076;8.198;2023-09-30T06:05:12;823.35;;;206.13;;
75156;SDS011;63736;50.076;8.198;2023-09-30T06:07:37;853.83;;;214.13;;
75156;SDS011;63736;50.076;8.198;2023-09-30T06:10:03;881.23;;;222.03;;
75156;SDS011;63736;50.076;8.198;2023-09-30T06:12:28;895.53;;;226.67;;
75156;SDS011;63736;50.076;8.198;2023-09-30T06:14:54;905.85;;;229.57;;
75156;SDS011;63736;50.076;8.198;2023-09-30T06:17:19;902.90;;;227.03;;
75156;SDS011;63736;50.076;8.198;2023-09-30T06:19:47;918.80;;;232.77;;
75156;SDS011;63736;50.076;8.198;2023-09-30T06:22:15;928.50;;;234.43;;
75156;SDS011;63736;50.076;8.198;2023-09-30T06:24:40;954.20;;;240.57;;
75156;SDS011;63736;50.076;8.198;2023-09-30T06:27:06;907.03;;;224.93;;
75156;SDS011;63736;50.076;8.198;2023-09-30T06:29:32;1082.47;;;278.77;;
75156;SDS011;63736;50.076;8.198;2023-09-30T06:31:58;1258.30;;;331.33;;
75156;SDS011;63736;50.076;8.198;2023-09-30T06:34:23;1469.67;;;393.50;;
75156;SDS011;63736;50.076;8.198;2023-09-30T06:36:49;1195.17;;;308.30;;
75156;SDS011;63736;50.076;8.198;2023-09-30T06:39:14;1320.53;;;346.80;;
75156;SDS011;63736;50.076;8.198;2023-09-30T06:41:39;1442.17;;;411.33;;
75156;SDS011;63736;50.076;8.198;2023-09-30T06:44:05;1543.53;;;467.17;;
75156;SDS011;63736;50.076;8.198;2023-09-30T06:46:30;1197.68;;;306.40;;
75156;SDS011;63736;50.076;8.198;2023-09-30T06:48:56;997.97;;;243.03;;
75156;SDS011;63736;50.076;8.198;2023-09-30T06:51:21;975.33;;;235.97;;
75156;SDS011;63736;50.076;8.198;2023-09-30T06:53:46;963.63;;;231.70;;
75156;SDS011;63736;50.076;8.198;2023-09-30T06:56:12;953.60;;;230.03;;
75156;SDS011;63736;50.076;8.198;2023-09-30T06:58:38;951.95;;;229.43;;
75156;SDS011;63736;50.076;8.198;2023-09-30T07:01:03;957.33;;;229.00;;
75156;SDS011;63736;50.076;8.198;2023-09-30T07:03:28;950.27;;;223.80;;
75156;SDS011;63736;50.076;8.198;2023-09-30T07:05:55;980.33;;;233.05;;
75156;SDS011;63736;50.076;8.198;2023-09-30T07:08:21;1026.63;;;244.60;;
75156;SDS011;63736;50.076;8.198;2023-09-30T07:10:47;1083.37;;;260.13;;
75156;SDS011;63736;50.076;8.198;2023-09-30T07:13:14;1099.97;;;261.05;;
75156;SDS011;63736;50.076;8.198;2023-09-30T07:15:41;1164.60;;;280.00;;
75156;SDS011;63736;50.076;8.198;2023-09-30T07:18:06;1319.53;;;319.27;;
75156;SDS011;63736;50.076;8.198;2023-09-30T07:20:32;1393.20;;;337.60;;
75156;SDS011;63736;50.076;8.198;2023-09-30T07:23:00;1421.00;;;344.93;;
75156;SDS011;63736;50.076;8.198;2023-09-30T07:25:26;1113.15;;;263.48;;
75156;SDS011;63736;50.076;8.198;2023-09-30T07:27:52;1070.53;;;252.23;;
75156;SDS011;63736;50.076;8.198;2023-09-30T07:30:17;1034.78;;;242.48;;
75156;SDS011;63736;50.076;8.198;2023-09-30T07:32:42;1006.27;;;235.33;;
75156;SDS011;63736;50.076;8.198;2023-09-30T07:35:09;997.40;;;234.50;;
75156;SDS011;63736;50.076;8.198;2023-09-30T07:37:35;987.65;;;230.98;;
75156;SDS011;63736;50.076;8.198;2023-09-30T07:40:00;976.20;;;230.77;;
75156;SDS011;63736;50.076;8.198;2023-09-30T07:42:25;966.50;;;226.65;;
75156;SDS011;63736;50.076;8.198;2023-09-30T07:44:51;958.87;;;224.77;;
75156;SDS011;63736;50.076;8.198;2023-09-30T07:47:16;961.67;;;233.53;;
75156;SDS011;63736;50.076;8.198;2023-09-30T07:49:42;962.20;;;229.97;;
75156;SDS011;63736;50.076;8.198;2023-09-30T07:52:07;965.80;;;227.83;;
75156;SDS011;63736;50.076;8.198;2023-09-30T07:54:33;976.40;;;228.43;;
75156;SDS011;63736;50.076;8.198;2023-09-30T07:56:58;979.63;;;230.83;;
75156;SDS011;63736;50.076;8.198;2023-09-30T07:59:24;978.38;;;229.20;;
75156;SDS011;63736;50.076;8.198;2023-09-30T08:01:50;937.15;;;220.50;;
75156;SDS011;63736;50.076;8.198;2023-09-30T08:04:16;971.38;;;227.50;;
75156;SDS011;63736;50.076;8.198;2023-09-30T08:06:42;1026.87;;;240.43;;
75156;SDS011;63736;50.076;8.198;2023-09-30T08:09:08;1063.47;;;248.97;;
75156;SDS011;63736;50.076;8.198;2023-09-30T08:11:36;1011.00;;;238.50;;
75156;SDS011;63736;50.076;8.198;2023-09-30T08:14:02;1002.75;;;237.20;;
75156;SDS011;63736;50.076;8.198;2023-09-30T08:16:31;1009.13;;;239.32;;
75156;SDS011;63736;50.076;8.198;2023-09-30T08:18:59;1005.30;;;237.70;;
75156;SDS011;63736;50.076;8.198;2023-09-30T08:21:25;1001.40;;;235.98;;
75156;SDS011;63736;50.076;8.198;2023-09-30T08:23:50;985.87;;;232.87;;
75156;SDS011;63736;50.076;8.198;2023-09-30T08:26:15;990.77;;;234.30;;
75156;SDS011;63736;50.076;8.198;2023-09-30T08:28:40;1003.70;;;237.17;;
75156;SDS011;63736;50.076;8.198;2023-09-30T08:31:06;977.30;;;232.33;;
75156;SDS011;63736;50.076;8.198;2023-09-30T08:33:31;995.27;;;235.87;;
75156;SDS011;63736;50.076;8.198;2023-09-30T08:36:03;967.17;;;228.97;;
75156;SDS011;63736;50.076;8.198;2023-09-30T08:38:32;966.75;;;229.77;;
75156;SDS011;63736;50.076;8.198;2023-09-30T08:41:01;944.63;;;225.25;;
75156;SDS011;63736;50.076;8.198;2023-09-30T08:43:27;929.20;;;220.80;;
75156;SDS011;63736;50.076;8.198;2023-09-30T08:45:55;920.33;;;220.13;;
75156;SDS011;63736;50.076;8.198;2023-09-30T08:48:21;915.42;;;220.13;;
75156;SDS011;63736;50.076;8.198;2023-09-30T08:50:54;906.83;;;217.35;;
75156;SDS011;63736;50.076;8.198;2023-09-30T08:53:22;911.43;;;217.90;;
75156;SDS011;63736;50.076;8.198;2023-09-30T08:55:49;908.83;;;217.63;;
75156;SDS011;63736;50.076;8.198;2023-09-30T08:58:19;903.85;;;217.43;;
75156;SDS011;63736;50.076;8.198;2023-09-30T09:00:45;899.63;;;216.27;;
75156;SDS011;63736;50.076;8.198;2023-09-30T09:03:10;893.67;;;215.33;;
75156;SDS011;63736;50.076;8.198;2023-09-30T09:05:36;896.07;;;215.13;;
75156;SDS011;63736;50.076;8.198;2023-09-30T09:08:02;892.57;;;213.03;;
75156;SDS011;63736;50.076;8.198;2023-09-30T09:10:27;893.47;;;213.03;;
75156;SDS011;63736;50.076;8.198;2023-09-30T09:12:56;892.55;;;214.45;;
75156;SDS011;63736;50.076;8.198;2023-09-30T09:15:23;889.17;;;212.75;;
75156;SDS011;63736;50.076;8.198;2023-09-30T09:17:50;890.10;;;212.90;;
75156;SDS011;63736;50.076;8.198;2023-09-30T09:20:17;896.05;;;214.70;;
75156;SDS011;63736;50.076;8.198;2023-09-30T09:22:48;897.72;;;214.85;;
75156;SDS011;63736;50.076;8.198;2023-09-30T09:25:19;899.00;;;214.45;;
75156;SDS011;63736;50.076;8.198;2023-09-30T09:27:44;898.55;;;214.95;;
75156;SDS011;63736;50.076;8.198;2023-09-30T09:30:16;898.80;;;215.27;;
75156;SDS011;63736;50.076;8.198;2023-09-30T09:32:52;894.15;;;214.27;;
75156;SDS011;63736;50.076;8.198;2023-09-30T09:35:25;893.40;;;212.13;;
75156;SDS011;63736;50.076;8.198;2023-09-30T09:38:04;890.22;;;212.60;;
75156;SDS011;63736;50.076;8.198;2023-09-30T09:40:33;889.58;;;212.15;;
75156;SDS011;63736;50.076;8.198;2023-09-30T09:43:05;889.92;;;211.93;;
75156;SDS011;63736;50.076;8.198;2023-09-30T09:45:35;888.40;;;211.43;;
75156;SDS011;63736;50.076;8.198;2023-09-30T09:48:03;884.80;;;210.00;;
75156;SDS011;63736;50.076;8.198;2023-09-30T09:50:29;883.13;;;209.57;;
75156;SDS011;63736;50.076;8.198;2023-09-30T09:52:56;884.65;;;211.50;;
75156;SDS011;63736;50.076;8.198;2023-09-30T09:55:25;883.53;;;210.27;;
75156;SDS011;63736;50.076;8.198;2023-09-30T09:57:52;882.17;;;208.82;;
75156;SDS011;63736;50.076;8.198;2023-09-30T10:00:23;914.37;;;216.27;;
75156;SDS011;63736;50.076;8.198;2023-09-30T10:02:52;1071.78;;;251.07;;
75156;SDS011;63736;50.076;8.198;2023-09-30T10:05:17;1222.85;;;286.50;;
75156;SDS011;63736;50.076;8.198;2023-09-30T10:07:50;1493.72;;;356.92;;
75156;SDS011;63736;50.076;8.198;2023-09-30T10:10:19;1505.00;;;359.70;;
75156;SDS011;63736;50.076;8.198;2023-09-30T10:12:46;1450.60;;;348.07;;
75156;SDS011;63736;50.076;8.198;2023-09-30T10:17:57;1414.35;;;340.48;;
75156;SDS011;63736;50.076;8.198;2023-09-30T10:20:32;1398.43;;;336.70;;
75156;SDS011;63736;50.076;8.198;2023-09-30T10:23:18;1392.35;;;336.48;;
75156;SDS011;63736;50.076;8.198;2023-09-30T10:25:49;1380.70;;;332.60;;
75156;SDS011;63736;50.076;8.198;2023-09-30T10:28:38;1387.00;;;338.08;;
75156;SDS011;63736;50.076;8.198;2023-09-30T10:31:20;1372.97;;;335.13;;
75156;SDS011;63736;50.076;8.198;2023-09-30T10:36:36;1341.85;;;327.80;;
75156;SDS011;63736;50.076;8.198;2023-09-30T10:39:05;1333.37;;;324.57;;
75156;SDS011;63736;50.076;8.198;2023-09-30T10:44:43;1327.60;;;323.83;;
75156;SDS011;63736;50.076;8.198;2023-09-30T10:53:11;1310.30;;;318.37;;
75156;SDS011;63736;50.076;8.198;2023-09-30T10:55:37;1313.30;;;320.08;;
75156;SDS011;63736;50.076;8.198;2023-09-30T10:58:02;1303.17;;;316.43;;
75156;SDS011;63736;50.076;8.198;2023-09-30T11:00:28;1301.63;;;317.88;;
75156;SDS011;63736;50.076;8.198;2023-09-30T11:02:55;1297.85;;;315.80;;
75156;SDS011;63736;50.076;8.198;2023-09-30T11:05:20;1296.83;;;315.87;;
75156;SDS011;63736;50.076;8.198;2023-09-30T11:07:47;1291.93;;;313.13;;
75156;SDS011;63736;50.076;8.198;2023-09-30T11:10:15;1296.07;;;316.63;;
75156;SDS011;63736;50.076;8.198;2023-09-30T11:12:53;1286.50;;;312.83;;
75156;SDS011;63736;50.076;8.198;2023-09-30T11:15:19;1287.65;;;313.35;;
75156;SDS011;63736;50.076;8.198;2023-09-30T11:17:44;1282.53;;;311.77;;
75156;SDS011;63736;50.076;8.198;2023-09-30T11:20:10;1281.30;;;312.52;;
75156;SDS011;63736;50.076;8.198;2023-09-30T11:22:35;1273.27;;;309.87;;
75156;SDS011;63736;50.076;8.198;2023-09-30T11:25:01;1264.97;;;308.17;;
75156;SDS011;63736;50.076;8.198;2023-09-30T11:27:28;1262.85;;;307.50;;
75156;SDS011;63736;50.076;8.198;2023-09-30T11:29:54;1255.23;;;304.33;;
75156;SDS011;63736;50.076;8.198;2023-09-30T11:32:26;1253.50;;;304.63;;
75156;SDS011;63736;50.076;8.198;2023-09-30T11:34:52;1244.13;;;301.73;;
75156;SDS011;63736;50.076;8.198;2023-09-30T11:37:18;1239.05;;;301.13;;
75156;SDS011;63736;50.076;8.198;2023-09-30T11:39:43;1231.53;;;298.67;;
75156;SDS011;63736;50.076;8.198;2023-09-30T11:42:16;1227.80;;;299.15;;
75156;SDS011;63736;50.076;8.198;2023-09-30T11:44:46;1219.03;;;295.23;;
75156;SDS011;63736;50.076;8.198;2023-09-30T11:47:13;1210.47;;;293.00;;
75156;SDS011;63736;50.076;8.198;2023-09-30T11:49:40;1205.90;;;291.73;;
75156;SDS011;63736;50.076;8.198;2023-09-30T11:52:10;1204.10;;;292.73;;
75156;SDS011;63736;50.076;8.198;2023-09-30T11:54:40;1195.82;;;289.48;;
75156;SDS011;63736;50.076;8.198;2023-09-30T11:57:08;1194.97;;;289.90;;
75156;SDS011;63736;50.076;8.198;2023-09-30T11:59:34;1189.03;;;286.63;;
75156;SDS011;63736;50.076;8.198;2023-09-30T12:02:01;1189.65;;;285.50;;
75156;SDS011;63736;50.076;8.198;2023-09-30T12:04:26;1193.28;;;288.13;;
75156;SDS011;63736;50.076;8.198;2023-09-30T12:06:52;1194.07;;;287.10;;
75156;SDS011;63736;50.076;8.198;2023-09-30T12:09:17;1189.20;;;284.25;;
75156;SDS011;63736;50.076;8.198;2023-09-30T12:11:50;1181.87;;;283.67;;
75156;SDS011;63736;50.076;8.198;2023-09-30T12:14:15;1169.55;;;280.35;;
75156;SDS011;63736;50.076;8.198;2023-09-30T12:16:41;1162.63;;;280.27;;
75156;SDS011;63736;50.076;8.198;2023-09-30T12:19:09;1150.05;;;275.13;;
75156;SDS011;63736;50.076;8.198;2023-09-30T12:21:35;1149.72;;;276.92;;
75156;SDS011;63736;50.076;8.198;2023-09-30T12:24:01;1135.07;;;271.77;;
75156;SDS011;63736;50.076;8.198;2023-09-30T12:26:28;1126.73;;;270.13;;
75156;SDS011;63736;50.076;8.198;2023-09-30T12:28:55;1122.57;;;268.98;;
75156;SDS011;63736;50.076;8.198;2023-09-30T12:31:20;1116.20;;;268.08;;
75156;SDS011;63736;50.076;8.198;2023-09-30T12:33:46;1110.22;;;266.10;;
75156;SDS011;63736;50.076;8.198;2023-09-30T12:36:15;1104.60;;;264.67;;
75156;SDS011;63736;50.076;8.198;2023-09-30T12:38:41;1098.33;;;263.23;;
75156;SDS011;63736;50.076;8.198;2023-09-30T12:41:06;1091.67;;;261.23;;
75156;SDS011;63736;50.076;8.198;2023-09-30T12:43:32;1088.65;;;260.45;;
75156;SDS011;63736;50.076;8.198;2023-09-30T12:45:57;1080.93;;;258.23;;
75156;SDS011;63736;50.076;8.198;2023-09-30T12:48:22;1077.27;;;257.13;;
75156;SDS011;63736;50.076;8.198;2023-09-30T12:50:48;1073.23;;;256.87;;
75156;SDS011;63736;50.076;8.198;2023-09-30T12:53:13;1067.63;;;255.03;;
75156;SDS011;63736;50.076;8.198;2023-09-30T12:55:38;1068.73;;;256.00;;
75156;SDS011;63736;50.076;8.198;2023-09-30T12:58:04;1066.73;;;255.20;;
75156;SDS011;63736;50.076;8.198;2023-09-30T13:00:30;1060.90;;;252.90;;
75156;SDS011;63736;50.076;8.198;2023-09-30T13:02:56;1064.40;;;253.90;;
75156;SDS011;63736;50.076;8.198;2023-09-30T13:05:22;1063.35;;;253.25;;
75156;SDS011;63736;50.076;8.198;2023-09-30T13:07:48;1066.55;;;257.30;;
75156;SDS011;63736;50.076;8.198;2023-09-30T13:10:14;1059.17;;;252.57;;
75156;SDS011;63736;50.076;8.198;2023-09-30T13:12:39;1062.00;;;253.93;;
75156;SDS011;63736;50.076;8.198;2023-09-30T13:15:05;1057.43;;;252.30;;
75156;SDS011;63736;50.076;8.198;2023-09-30T13:17:30;1052.47;;;250.67;;
75156;SDS011;63736;50.076;8.198;2023-09-30T13:19:56;1054.30;;;251.57;;
75156;SDS011;63736;50.076;8.198;2023-09-30T13:22:21;1051.47;;;251.77;;
75156;SDS011;63736;50.076;8.198;2023-09-30T13:24:47;1047.97;;;251.30;;
75156;SDS011;63736;50.076;8.198;2023-09-30T13:27:12;1045.20;;;250.63;;
75156;SDS011;63736;50.076;8.198;2023-09-30T13:29:40;1043.00;;;248.48;;
75156;SDS011;63736;50.076;8.198;2023-09-30T13:32:06;1043.20;;;249.80;;
75156;SDS011;63736;50.076;8.198;2023-09-30T13:34:31;1039.00;;;247.43;;
75156;SDS011;63736;50.076;8.198;2023-09-30T13:36:57;1039.03;;;248.60;;
75156;SDS011;63736;50.076;8.198;2023-09-30T13:39:22;1038.47;;;248.67;;
75156;SDS011;63736;50.076;8.198;2023-09-30T13:41:49;1033.95;;;247.38;;
75156;SDS011;63736;50.076;8.198;2023-09-30T13:44:14;1032.13;;;246.27;;
75156;SDS011;63736;50.076;8.198;2023-09-30T13:46:39;1028.77;;;245.67;;
75156;SDS011;63736;50.076;8.198;2023-09-30T13:49:05;1030.13;;;245.93;;
75156;SDS011;63736;50.076;8.198;2023-09-30T13:51:30;1030.63;;;246.53;;
75156;SDS011;63736;50.076;8.198;2023-09-30T13:53:55;1026.18;;;244.77;;
75156;SDS011;63736;50.076;8.198;2023-09-30T13:56:21;1028.10;;;245.97;;
75156;SDS011;63736;50.076;8.198;2023-09-30T13:58:46;1026.27;;;245.87;;
75156;SDS011;63736;50.076;8.198;2023-09-30T14:01:14;1026.50;;;244.97;;
75156;SDS011;63736;50.076;8.198;2023-09-30T14:03:40;1030.88;;;245.82;;